createdAt,value
2024-03-15T00:00:25.686Z,21.42
2024-03-15T00:02:53.575Z,21.67
2024-03-15T00:05:22.094Z,22.10
2024-03-15T00:07:49.547Z,21.50
2024-03-15T00:10:16.898Z,21.13
2024-03-15T00:12:44.762Z,20.02
2024-03-15T00:15:12.690Z,23.00
2024-03-15T00:17:40.216Z,22.73
2024-03-15T00:20:09.430Z,23.60
2024-03-15T00:22:37.769Z,23.90
2024-03-15T00:25:05.359Z,23.85
2024-03-15T00:27:33.075Z,24.15
2024-03-15T00:30:00.533Z,25.25
2024-03-15T00:32:28.890Z,23.80
2024-03-15T00:34:56.531Z,23.77
2024-03-15T00:37:23.932Z,25.52
2024-03-15T00:39:51.461Z,23.95
2024-03-15T00:42:19.444Z,24.00
2024-03-15T00:44:46.885Z,24.98
2024-03-15T00:47:14.299Z,23.48
2024-03-15T00:49:41.728Z,23.77
2024-03-15T00:52:09.057Z,23.73
2024-03-15T00:54:36.892Z,23.15
2024-03-15T00:57:06.540Z,25.80
2024-03-15T00:59:34.061Z,22.40
2024-03-15T01:02:01.848Z,24.67
2024-03-15T01:04:30.124Z,24.80
2024-03-15T01:06:57.934Z,24.85
2024-03-15T01:09:25.704Z,26.38
2024-03-15T01:11:53.292Z,27.00
2024-03-15T01:14:21.632Z,25.17
2024-03-15T01:16:48.996Z,26.20
2024-03-15T01:19:17.171Z,25.63
2024-03-15T01:21:45.019Z,28.02
2024-03-15T01:24:14.203Z,28.50
2024-03-15T01:26:42.418Z,30.02
2024-03-15T01:29:09.869Z,27.13
2024-03-15T01:31:37.443Z,27.23
2024-03-15T01:34:05.017Z,29.30
2024-03-15T01:36:32.378Z,27.88
2024-03-15T01:39:00.025Z,27.52
2024-03-15T01:41:27.775Z,29.10
2024-03-15T01:43:56.050Z,27.63
2024-03-15T01:46:24.536Z,29.70
2024-03-15T01:48:53.886Z,27.85
2024-03-15T01:51:21.533Z,27.00
2024-03-15T01:53:49.206Z,27.05
2024-03-15T01:56:16.644Z,26.80
2024-03-15T01:58:44.385Z,26.80
2024-03-15T02:01:12.956Z,26.42
2024-03-15T02:03:41.124Z,26.10
2024-03-15T02:06:10.268Z,25.95
2024-03-15T02:08:37.955Z,25.27
2024-03-15T02:11:05.302Z,26.27
2024-03-15T02:13:32.731Z,26.02
2024-03-15T02:16:01.279Z,25.45
2024-03-15T02:18:29.010Z,23.75
2024-03-15T02:20:56.745Z,22.50
2024-03-15T02:23:26.011Z,22.27
2024-03-15T02:25:54.794Z,22.98
2024-03-15T02:28:23.828Z,22.10
2024-03-15T02:30:51.436Z,21.27
2024-03-15T02:33:19.377Z,23.42
2024-03-15T02:35:47.733Z,23.33
2024-03-15T02:38:15.364Z,22.42
2024-03-15T02:40:43.195Z,20.85
2024-03-15T02:43:10.434Z,20.73
2024-03-15T02:45:37.862Z,21.88
2024-03-15T02:48:05.798Z,20.05
2024-03-15T02:50:33.450Z,20.05
2024-03-15T02:53:01.368Z,20.02
2024-03-15T02:55:28.955Z,19.70
2024-03-15T02:57:57.035Z,20.30
2024-03-15T03:00:24.470Z,19.67
2024-03-15T03:02:54.865Z,19.88
2024-03-15T03:05:22.724Z,20.33
2024-03-15T03:07:50.910Z,20.70
2024-03-15T03:10:18.279Z,20.88
2024-03-15T03:12:45.688Z,20.75
2024-03-15T03:15:15.700Z,18.50
2024-03-15T03:17:46.985Z,21.00
2024-03-15T03:20:20.642Z,20.77
2024-03-15T03:22:49.885Z,20.17
2024-03-15T03:25:17.530Z,19.23
2024-03-15T03:27:44.910Z,20.35
2024-03-15T03:30:12.453Z,22.08
2024-03-15T03:32:41.435Z,20.13
2024-03-15T03:35:08.852Z,20.33
2024-03-15T03:37:36.279Z,20.38
2024-03-15T03:40:08.310Z,21.35
2024-03-15T03:42:37.414Z,21.58
2024-03-15T03:45:17.514Z,20.05
2024-03-15T03:47:46.458Z,18.73
2024-03-15T03:50:13.902Z,20.08
2024-03-15T03:52:41.773Z,19.60
2024-03-15T03:55:09.589Z,18.63
2024-03-15T03:57:45.342Z,19.27
2024-03-15T04:00:18.068Z,18.40
2024-03-15T04:02:49.799Z,19.77
2024-03-15T04:05:19.540Z,18.27
2024-03-15T04:07:47.571Z,18.70
2024-03-15T04:10:15.248Z,19.33
2024-03-15T04:12:46.986Z,19.15
2024-03-15T04:15:25.421Z,19.48
2024-03-15T04:17:59.601Z,17.08
2024-03-15T04:20:28.322Z,17.10
2024-03-15T04:22:57.426Z,18.60
2024-03-15T04:25:27.663Z,17.40
2024-03-15T04:27:55.570Z,19.08
2024-03-15T04:30:26.195Z,18.55
2024-03-15T04:32:57.395Z,18.45
2024-03-15T04:35:25.274Z,18.88
2024-03-15T04:37:54.380Z,19.13
2024-03-15T04:40:21.840Z,18.85
2024-03-15T04:42:49.233Z,18.85
2024-03-15T04:45:18.991Z,18.20
2024-03-15T04:47:46.517Z,18.05
2024-03-15T04:50:16.938Z,17.52
2024-03-15T04:52:44.524Z,18.70
2024-03-15T04:55:12.684Z,18.60
2024-03-15T04:57:40.888Z,18.92
2024-03-15T05:00:14.770Z,16.90
2024-03-15T05:02:42.339Z,16.97
2024-03-15T05:05:10.147Z,17.73
2024-03-15T05:07:37.615Z,17.27
2024-03-15T05:10:05.246Z,18.13
2024-03-15T05:12:33.005Z,18.55
2024-03-15T05:15:00.507Z,18.35
2024-03-15T05:17:27.998Z,17.00
2024-03-15T05:19:56.614Z,17.65
2024-03-15T05:22:28.691Z,18.10
2024-03-15T05:24:56.839Z,16.80
2024-03-15T05:27:24.328Z,16.73
2024-03-15T05:29:51.715Z,16.63
2024-03-15T05:32:19.011Z,17.45
2024-03-15T05:34:46.365Z,18.17
2024-03-15T05:37:14.025Z,19.60
2024-03-15T05:39:41.470Z,19.55
2024-03-15T05:42:09.097Z,18.50
2024-03-15T05:44:36.475Z,22.67
2024-03-15T05:47:03.869Z,21.50
2024-03-15T05:49:31.372Z,19.63
2024-03-15T05:51:58.870Z,16.67
2024-03-15T05:54:28.071Z,16.75
2024-03-15T05:56:55.624Z,17.33
2024-03-15T05:59:23.155Z,16.55
2024-03-15T06:01:50.923Z,17.10
2024-03-15T06:04:18.609Z,17.30
2024-03-15T06:06:48.275Z,16.88
2024-03-15T06:09:16.760Z,16.98
2024-03-15T06:11:44.910Z,17.45
2024-03-15T06:14:13.132Z,17.55
2024-03-15T06:16:41.310Z,18.52
2024-03-15T06:19:08.799Z,18.40
2024-03-15T06:21:36.199Z,18.25
2024-03-15T06:24:03.699Z,18.42
2024-03-15T06:26:31.274Z,17.85
2024-03-15T06:28:58.887Z,18.60
2024-03-15T06:31:26.379Z,21.02
2024-03-15T06:33:58.108Z,18.23
2024-03-15T06:36:31.438Z,19.80
2024-03-15T06:39:10.658Z,19.73
2024-03-15T06:41:42.051Z,20.58
2024-03-15T06:44:15.681Z,29.55
2024-03-15T06:46:54.487Z,56.43
2024-03-15T06:49:45.058Z,45.50
2024-03-15T06:52:31.810Z,62.40
2024-03-15T06:55:01.489Z,50.03
2024-03-15T06:57:29.654Z,52.53
2024-03-15T06:59:57.127Z,58.10
2024-03-15T07:02:31.678Z,38.67
2024-03-15T07:04:59.692Z,50.28
2024-03-15T07:07:27.769Z,38.72
2024-03-15T07:09:55.182Z,46.85
2024-03-15T07:12:23.638Z,36.30
2024-03-15T07:14:54.530Z,36.20
2024-03-15T07:17:24.080Z,27.77
2024-03-15T07:19:51.533Z,26.80
2024-03-15T07:22:19.571Z,26.00
2024-03-15T07:24:49.874Z,24.10
2024-03-15T07:27:17.474Z,27.65
2024-03-15T07:29:44.945Z,34.05
2024-03-15T07:32:12.253Z,26.77
2024-03-15T07:34:40.904Z,27.15
2024-03-15T07:37:08.367Z,47.85
2024-03-15T07:39:35.882Z,26.23
2024-03-15T07:42:03.439Z,51.60
2024-03-15T07:44:31.399Z,34.35
2024-03-15T07:46:58.758Z,27.90
2024-03-15T07:49:26.359Z,30.55
2024-03-15T07:51:55.220Z,29.10
2024-03-15T07:54:23.388Z,37.10
2024-03-15T07:56:51.052Z,31.92
2024-03-15T07:59:20.448Z,28.33
2024-03-15T08:01:48.349Z,27.35
2024-03-15T08:04:16.160Z,26.40
2024-03-15T08:06:44.176Z,42.97
2024-03-15T08:09:13.111Z,32.25
2024-03-15T08:11:41.400Z,342.92
2024-03-15T08:14:09.708Z,83.70
2024-03-15T08:16:37.210Z,40.22
2024-03-15T08:19:08.817Z,34.40
2024-03-15T08:21:38.228Z,27.48
2024-03-15T08:24:06.636Z,23.85
2024-03-15T08:26:35.889Z,24.90
2024-03-15T08:29:03.243Z,24.15
2024-03-15T08:31:33.494Z,24.55
2024-03-15T08:34:04.852Z,24.63
2024-03-15T08:36:38.336Z,25.00
2024-03-15T08:39:06.831Z,25.20
2024-03-15T08:41:34.219Z,27.75
2024-03-15T08:44:01.813Z,27.40
2024-03-15T08:46:33.043Z,30.05
2024-03-15T08:49:00.800Z,27.02
2024-03-15T08:51:28.391Z,27.05
2024-03-15T08:53:56.223Z,26.60
2024-03-15T08:56:25.785Z,28.08
2024-03-15T08:58:53.317Z,28.13
2024-03-15T09:01:22.659Z,30.75
2024-03-15T09:03:50.365Z,29.48
2024-03-15T09:06:18.016Z,30.70
2024-03-15T09:08:52.393Z,29.40
2024-03-15T09:13:49.687Z,29.95
2024-03-15T09:16:18.337Z,39.25
2024-03-15T09:18:45.755Z,34.45
2024-03-15T09:21:14.056Z,29.52
2024-03-15T09:23:41.590Z,27.73
2024-03-15T09:26:09.335Z,30.00
2024-03-15T09:28:41.625Z,29.95
2024-03-15T09:31:24.006Z,30.17
2024-03-15T09:34:01.504Z,31.42
2024-03-15T09:36:30.004Z,32.40
2024-03-15T09:38:58.226Z,33.67
2024-03-15T09:41:26.405Z,33.08
2024-03-15T09:43:54.360Z,36.30
2024-03-15T09:46:26.529Z,36.08
2024-03-15T09:48:56.306Z,36.65
2024-03-15T09:51:24.213Z,38.30
2024-03-15T09:53:52.337Z,37.47
2024-03-15T09:56:20.147Z,38.97
2024-03-15T09:58:51.611Z,38.33
2024-03-15T10:01:19.646Z,38.47
2024-03-15T10:03:50.022Z,40.03
2024-03-15T10:06:17.975Z,40.75
2024-03-15T10:08:45.469Z,42.90
2024-03-15T10:11:13.363Z,42.95
2024-03-15T10:13:41.018Z,40.55
2024-03-15T10:16:09.735Z,43.72
2024-03-15T10:18:40.477Z,46.72
2024-03-15T10:21:08.503Z,46.03
2024-03-15T10:23:35.808Z,44.63
2024-03-15T10:26:04.427Z,48.97
2024-03-15T10:28:33.101Z,53.17
2024-03-15T10:31:00.708Z,49.75
2024-03-15T10:33:28.627Z,48.15
2024-03-15T10:35:56.016Z,50.17
2024-03-15T10:38:24.115Z,50.63
2024-03-15T10:40:51.734Z,53.75
2024-03-15T10:45:50.087Z,58.45
2024-03-15T10:48:21.068Z,57.08
2024-03-15T10:50:48.624Z,59.08
2024-03-15T10:53:17.066Z,56.35
2024-03-15T10:55:44.740Z,61.97
2024-03-15T10:58:12.624Z,63.83
2024-03-15T11:00:40.635Z,60.17
2024-03-15T11:03:13.491Z,65.85
2024-03-15T11:05:41.235Z,68.45
2024-03-15T11:08:18.230Z,65.70
2024-03-15T11:10:55.977Z,68.40
2024-03-15T11:13:26.927Z,68.55
2024-03-15T11:15:54.748Z,67.70
2024-03-15T11:18:22.676Z,68.68
2024-03-15T11:20:51.220Z,96.38
2024-03-15T11:23:22.624Z,243.82
2024-03-15T11:25:56.978Z,93.53
2024-03-15T11:28:31.363Z,71.43
2024-03-15T11:31:01.594Z,82.55
2024-03-15T11:33:30.806Z,74.95
2024-03-15T11:35:59.073Z,70.60
2024-03-15T11:38:27.553Z,65.55
2024-03-15T11:40:57.270Z,73.07
2024-03-15T11:43:24.751Z,76.05
2024-03-15T11:45:52.544Z,77.55
2024-03-15T11:48:25.315Z,75.38
2024-03-15T11:50:53.895Z,74.25
2024-03-15T11:53:21.962Z,75.32
2024-03-15T11:55:53.626Z,76.72
2024-03-15T11:58:21.829Z,75.25
2024-03-15T12:00:53.409Z,82.13
2024-03-15T12:03:22.267Z,74.38
2024-03-15T12:05:50.187Z,79.95
2024-03-15T12:08:21.861Z,86.72
2024-03-15T12:10:50.009Z,102.63
2024-03-15T12:13:30.377Z,111.97
2024-03-15T12:16:00.249Z,85.85
2024-03-15T12:18:28.465Z,96.93
2024-03-15T12:20:56.116Z,79.50
2024-03-15T12:23:24.267Z,80.85
2024-03-15T12:25:52.423Z,83.05
2024-03-15T12:28:21.291Z,80.30
2024-03-15T12:30:50.794Z,85.13
2024-03-15T12:33:18.533Z,80.22
2024-03-15T12:35:46.421Z,90.07
2024-03-15T12:38:19.729Z,89.53
2024-03-15T12:40:47.389Z,82.40
2024-03-15T12:43:14.822Z,87.82
2024-03-15T12:45:43.112Z,85.53
2024-03-15T12:48:11.728Z,79.72
2024-03-15T12:50:39.355Z,103.47
2024-03-15T12:53:08.310Z,76.80
2024-03-15T12:55:35.721Z,78.30
2024-03-15T12:58:03.483Z,80.47
2024-03-15T13:00:31.443Z,77.75
2024-03-15T13:02:59.675Z,79.25
2024-03-15T13:05:27.305Z,80.57
2024-03-15T13:07:54.657Z,80.10
2024-03-15T13:10:22.125Z,83.55
2024-03-15T13:12:51.923Z,79.70
2024-03-15T13:15:20.122Z,79.50
2024-03-15T13:17:50.750Z,103.38
2024-03-15T13:20:18.464Z,81.38
2024-03-15T13:22:46.720Z,79.60
2024-03-15T13:25:27.182Z,80.25
2024-03-15T13:28:03.043Z,79.95
2024-03-15T13:30:30.738Z,80.65
2024-03-15T13:33:01.029Z,75.82
2024-03-15T13:35:29.946Z,79.70
2024-03-15T13:37:57.667Z,84.32
2024-03-15T13:40:25.766Z,81.05
2024-03-15T13:42:53.969Z,77.00
2024-03-15T13:45:23.466Z,75.13
2024-03-15T13:47:56.224Z,76.78
2024-03-15T13:50:24.067Z,73.97
2024-03-15T13:52:53.799Z,77.15
2024-03-15T13:55:23.306Z,73.65
2024-03-15T13:57:51.857Z,73.63
2024-03-15T14:00:42.099Z,74.50
2024-03-15T14:03:11.254Z,71.43
2024-03-15T14:05:41.043Z,73.70
2024-03-15T14:08:21.153Z,72.20
2024-03-15T14:10:49.024Z,74.70
2024-03-15T14:13:19.786Z,71.82
2024-03-15T14:15:50.943Z,69.82
2024-03-15T14:18:19.781Z,67.57
2024-03-15T14:20:48.687Z,70.13
2024-03-15T14:23:16.229Z,66.95
2024-03-15T14:25:46.954Z,68.20
2024-03-15T14:28:14.487Z,63.40
2024-03-15T14:30:42.288Z,71.70
2024-03-15T14:33:11.275Z,69.43
2024-03-15T14:35:40.011Z,73.68
2024-03-15T14:38:10.327Z,69.32
2024-03-15T14:40:39.904Z,69.53
2024-03-15T14:43:09.257Z,69.68
2024-03-15T14:45:38.292Z,66.60
2024-03-15T14:48:14.866Z,66.38
2024-03-15T14:50:44.101Z,68.13
2024-03-15T14:53:14.722Z,67.65
2024-03-15T14:55:44.592Z,66.93
2024-03-15T14:58:15.757Z,64.78
2024-03-15T15:00:45.394Z,65.53
2024-03-15T15:03:13.596Z,65.45
2024-03-15T15:05:41.339Z,62.28
2024-03-15T15:08:11.175Z,64.68
2024-03-15T15:10:39.788Z,61.65
2024-03-15T15:13:08.571Z,63.63
2024-03-15T15:15:36.750Z,61.90
2024-03-15T15:18:05.306Z,59.97
2024-03-15T15:20:33.142Z,61.58
2024-03-15T15:23:06.058Z,58.58
2024-03-15T15:25:34.133Z,61.65
2024-03-15T15:28:01.611Z,60.10
2024-03-15T15:30:29.372Z,58.47
2024-03-15T15:32:56.992Z,61.33
2024-03-15T15:35:25.075Z,59.95
2024-03-15T15:37:52.368Z,61.70
2024-03-15T15:40:26.628Z,60.83
2024-03-15T15:42:58.808Z,58.58
2024-03-15T15:45:33.987Z,58.63
2024-03-15T15:48:06.614Z,60.13
2024-03-15T15:50:35.291Z,60.65
2024-03-15T15:53:02.975Z,58.05
2024-03-15T15:55:32.227Z,57.15
2024-03-15T15:57:59.999Z,58.13
2024-03-15T16:00:27.667Z,59.15
2024-03-15T16:02:55.393Z,58.60
2024-03-15T16:05:23.060Z,57.15
2024-03-15T16:07:51.053Z,59.55
2024-03-15T16:10:19.185Z,58.78
2024-03-15T16:12:46.832Z,57.55
2024-03-15T16:15:14.624Z,57.17
2024-03-15T16:17:42.314Z,60.22
2024-03-15T16:20:10.921Z,73.03
2024-03-15T16:22:38.883Z,71.80
2024-03-15T16:25:07.331Z,64.68
2024-03-15T16:27:37.537Z,61.60
2024-03-15T16:30:05.950Z,57.88
2024-03-15T16:32:34.276Z,60.88
2024-03-15T16:35:08.209Z,57.17
2024-03-15T16:37:36.626Z,52.65
2024-03-15T16:40:08.546Z,54.13
2024-03-15T16:42:38.645Z,55.00
2024-03-15T16:45:07.357Z,53.92
2024-03-15T16:47:35.726Z,52.97
2024-03-15T16:50:05.113Z,54.97
2024-03-15T16:52:33.740Z,53.53
2024-03-15T16:55:01.566Z,50.00
2024-03-15T16:57:29.204Z,51.75
2024-03-15T16:59:56.644Z,50.30
2024-03-15T17:02:24.595Z,50.20
2024-03-15T17:04:52.212Z,50.97
2024-03-15T17:07:19.718Z,49.10
2024-03-15T17:09:47.191Z,48.47
2024-03-15T17:12:15.761Z,46.58
2024-03-15T17:14:43.273Z,47.63
2024-03-15T17:17:12.307Z,46.55
2024-03-15T17:19:40.762Z,45.75
2024-03-15T17:22:08.258Z,45.20
2024-03-15T17:24:36.095Z,45.15
2024-03-15T17:27:03.737Z,45.38
2024-03-15T17:29:31.257Z,46.67
2024-03-15T17:31:58.676Z,46.40
2024-03-15T17:34:26.082Z,46.42
2024-03-15T17:36:53.557Z,48.05
2024-03-15T17:39:21.676Z,45.65
2024-03-15T17:41:49.515Z,44.60
2024-03-15T17:44:18.378Z,47.22
2024-03-15T17:46:45.824Z,47.28
2024-03-15T17:49:13.194Z,48.30
2024-03-15T17:51:43.007Z,48.55
2024-03-15T17:54:10.945Z,47.40
2024-03-15T17:56:38.409Z,50.47
2024-03-15T17:59:05.798Z,47.80
2024-03-15T18:01:34.438Z,49.30
2024-03-15T18:04:02.273Z,47.85
2024-03-15T18:06:30.457Z,49.38
2024-03-15T18:08:57.843Z,49.15
2024-03-15T18:11:25.281Z,49.05
2024-03-15T18:13:53.566Z,48.67
2024-03-15T18:16:20.917Z,45.60
2024-03-15T18:18:50.474Z,46.92
2024-03-15T18:21:19.139Z,47.00
2024-03-15T18:23:46.557Z,45.38
2024-03-15T18:26:14.028Z,44.55
2024-03-15T18:28:41.342Z,43.00
2024-03-15T18:31:10.720Z,48.75
2024-03-15T18:33:38.689Z,47.75
2024-03-15T18:36:06.473Z,48.90
2024-03-15T18:38:33.923Z,46.40
2024-03-15T18:41:01.512Z,47.88
2024-03-15T18:43:29.097Z,46.78
2024-03-15T18:45:56.509Z,44.20
2024-03-15T18:48:24.083Z,43.67
2024-03-15T18:50:51.636Z,45.88
2024-03-15T18:53:19.273Z,45.25
2024-03-15T18:55:50.265Z,44.83
2024-03-15T18:58:17.643Z,43.30
2024-03-15T19:00:47.503Z,43.50
2024-03-15T19:03:15.313Z,45.13
2024-03-15T19:05:42.905Z,43.60
2024-03-15T19:08:10.189Z,42.80
2024-03-15T19:10:40.038Z,43.90
2024-03-15T19:13:09.569Z,45.05
2024-03-15T19:15:37.289Z,42.95
2024-03-15T19:18:05.072Z,44.72
2024-03-15T19:20:32.831Z,43.55
2024-03-15T19:23:02.473Z,42.95
2024-03-15T19:25:30.286Z,43.88
2024-03-15T19:27:58.113Z,42.95
2024-03-15T19:30:26.392Z,43.90
2024-03-15T19:32:53.858Z,45.33
2024-03-15T19:35:21.408Z,44.33
2024-03-15T19:37:48.871Z,45.20
2024-03-15T19:40:16.283Z,46.45
2024-03-15T19:42:44.772Z,45.10
2024-03-15T19:45:13.619Z,46.90
2024-03-15T19:47:41.117Z,47.05
2024-03-15T19:50:08.757Z,47.90
2024-03-15T19:52:36.634Z,45.80
2024-03-15T19:55:04.934Z,49.88
2024-03-15T19:57:32.609Z,51.30
2024-03-15T20:00:00.422Z,48.90
2024-03-15T20:02:29.154Z,48.33
2024-03-15T20:04:58.618Z,47.58
2024-03-15T20:07:26.012Z,50.05
2024-03-15T20:09:53.425Z,49.70
2024-03-15T20:12:21.592Z,47.30
2024-03-15T20:14:50.365Z,49.35
2024-03-15T20:17:17.656Z,48.35
2024-03-15T20:19:45.193Z,48.65
2024-03-15T20:22:18.041Z,50.92
2024-03-15T20:24:48.272Z,47.60
2024-03-15T20:27:17.016Z,48.42
2024-03-15T20:29:44.652Z,50.00
2024-03-15T20:32:11.975Z,49.70
2024-03-15T20:34:39.346Z,47.55
2024-03-15T20:37:07.543Z,50.83
2024-03-15T20:39:37.132Z,47.90
2024-03-15T20:42:04.879Z,46.55
2024-03-15T20:44:32.412Z,49.63
2024-03-15T20:46:59.785Z,48.67
2024-03-15T20:49:27.302Z,47.88
2024-03-15T20:51:54.980Z,48.65
2024-03-15T20:54:22.487Z,48.00
2024-03-15T20:56:49.951Z,46.85
2024-03-15T20:59:17.369Z,48.90
2024-03-15T21:01:57.340Z,48.33
2024-03-15T21:04:25.155Z,47.38
2024-03-15T21:06:52.605Z,45.83
2024-03-15T21:09:21.628Z,50.05
2024-03-15T21:11:49.555Z,50.25
2024-03-15T21:14:16.971Z,46.65
2024-03-15T21:16:44.972Z,46.85
2024-03-15T21:19:12.430Z,49.88
2024-03-15T21:21:41.567Z,49.78
2024-03-15T21:24:11.430Z,46.65
2024-03-15T21:26:38.938Z,47.05
2024-03-15T21:29:07.497Z,46.58
2024-03-15T21:31:35.190Z,49.33
2024-03-15T21:34:04.520Z,47.15
2024-03-15T21:36:32.396Z,50.55
2024-03-15T21:39:02.533Z,47.88
2024-03-15T21:41:31.397Z,46.33
2024-03-15T21:43:58.910Z,48.30
2024-03-15T21:46:36.623Z,47.67
2024-03-15T21:49:06.331Z,43.63
2024-03-15T21:51:33.979Z,44.75
2024-03-15T21:54:01.727Z,44.00
2024-03-15T21:56:29.858Z,42.58
2024-03-15T21:59:00.839Z,42.60
2024-03-15T22:01:31.373Z,42.47
2024-03-15T22:03:59.212Z,43.47
2024-03-15T22:06:26.584Z,41.50
2024-03-15T22:08:53.941Z,41.72
2024-03-15T22:11:21.364Z,42.78
2024-03-15T22:13:49.749Z,42.25
2024-03-15T22:16:19.734Z,42.08
2024-03-15T22:18:47.504Z,42.90
2024-03-15T22:21:14.946Z,41.95
2024-03-15T22:23:42.341Z,44.78
2024-03-15T22:26:09.837Z,41.05
2024-03-15T22:28:38.242Z,45.80
2024-03-15T22:31:05.635Z,43.72
2024-03-15T22:33:33.217Z,45.97
2024-03-15T22:36:00.622Z,45.47
2024-03-15T22:38:27.989Z,43.17
2024-03-15T22:40:56.149Z,43.75
2024-03-15T22:43:23.502Z,44.75
2024-03-15T22:45:50.980Z,44.42
2024-03-15T22:48:18.620Z,44.90
2024-03-15T22:50:46.001Z,44.90
2024-03-15T22:53:13.972Z,42.20
2024-03-15T22:55:46.128Z,41.20
2024-03-15T22:58:13.714Z,40.63
2024-03-15T23:00:44.564Z,41.33
2024-03-15T23:03:15.353Z,43.65
2024-03-15T23:05:44.494Z,43.25
2024-03-15T23:08:13.028Z,41.13
2024-03-15T23:10:42.933Z,42.38
2024-03-15T23:13:12.620Z,39.88
2024-03-15T23:15:40.178Z,39.80
2024-03-15T23:18:07.853Z,40.92
2024-03-15T23:20:35.306Z,42.65
2024-03-15T23:23:02.806Z,43.20
2024-03-15T23:25:30.501Z,42.67
2024-03-15T23:27:58.089Z,40.08
2024-03-15T23:30:25.912Z,39.88
2024-03-15T23:32:53.371Z,42.28
2024-03-15T23:35:20.876Z,41.97
2024-03-15T23:37:48.303Z,41.55
2024-03-15T23:40:16.202Z,41.40
2024-03-15T23:42:43.925Z,40.35
2024-03-15T23:45:12.285Z,42.17
2024-03-15T23:47:39.900Z,44.08
2024-03-15T23:50:08.232Z,46.05
2024-03-15T23:52:36.423Z,42.83
2024-03-15T23:55:08.843Z,41.55
2024-03-15T23:57:39.459Z,42.55
